Time;durP1;ratioP1;P1;durP2;ratioP2;P2;SDS_P1;SDS_P2;PMS_P1;PMS_P2;Temp;Humidity;BMP_temperature;BMP_pressure;BME280_temperature;BME280_humidity;BME280_pressure;Samples;Min_cycle;Max_cycle;Signal;HPM_P1;HPM_P2
2022/11/12 00:00:09;;;;;;;27.23;24.37;;;;;;;;;;5044197;28;20177;-55
2022/11/12 00:02:35;;;;;;;33.17;29.57;;;;;;;;;;5031919;28;20587;-55
2022/11/12 00:05:00;;;;;;;34.83;29.90;;;;;;;;;;5034061;28;20190;-55
2022/11/12 00:07:25;;;;;;;33.90;30.20;;;;;;;;;;5043733;28;20182;-57
2022/11/12 00:09:50;;;;;;;33.50;29.10;;;;;;;;;;5029421;28;20178;-55
2022/11/12 00:12:15;;;;;;;31.40;27.43;;;;;;;;;;5048185;28;20212;-54
2022/11/12 00:14:40;;;;;;;36.27;31.87;;;;;;;;;;5035183;28;20176;-56
2022/11/12 00:17:05;;;;;;;30.60;27.30;;;;;;;;;;5042614;28;20203;-54
2022/11/12 00:19:31;;;;;;;34.00;29.67;;;;;;;;;;5047146;28;20205;-55
2022/11/12 00:21:56;;;;;;;36.37;32.37;;;;;;;;;;5045637;28;20270;-54
2022/11/12 00:24:21;;;;;;;32.80;28.55;;;;;;;;;;5046561;28;20184;-56
2022/11/12 00:26:46;;;;;;;32.50;29.10;;;;;;;;;;5041801;28;20193;-55
2022/11/12 00:29:11;;;;;;;31.47;28.17;;;;;;;;;;5047417;28;20175;-55
2022/11/12 00:31:36;;;;;;;31.70;28.35;;;;;;;;;;5035295;28;20192;-55
2022/11/12 00:34:02;;;;;;;30.23;27.13;;;;;;;;;;5040901;28;20632;-56
2022/11/12 00:36:27;;;;;;;31.77;28.40;;;;;;;;;;5037551;28;20225;-55
2022/11/12 00:38:52;;;;;;;34.90;29.90;;;;;;;;;;5048236;28;20999;-55
2022/11/12 00:41:17;;;;;;;30.33;27.13;;;;;;;;;;5046865;28;20206;-55
2022/11/12 00:43:43;;;;;;;31.30;27.57;;;;;;;;;;5037994;28;20177;-55
2022/11/12 00:46:08;;;;;;;28.57;25.47;;;;;;;;;;5043416;28;20534;-55
2022/11/12 00:48:33;;;;;;;29.63;26.53;;;;;;;;;;5046429;28;20233;-55
2022/11/12 00:51:02;;;;;;;30.00;26.77;;;;;;;;;;5043940;28;20225;-55
2022/11/12 00:53:27;;;;;;;29.90;26.73;;;;;;;;;;5048970;28;20237;-55
2022/11/12 00:55:52;;;;;;;29.80;26.10;;;;;;;;;;5041728;28;20609;-56
2022/11/12 00:58:18;;;;;;;26.92;24.27;;;;;;;;;;5039237;28;20238;-55
2022/11/12 01:00:43;;;;;;;28.57;25.67;;;;;;;;;;5038123;28;20592;-55
2022/11/12 01:03:08;;;;;;;28.53;25.40;;;;;;;;;;5038989;28;20174;-55
2022/11/12 01:05:33;;;;;;;28.23;25.00;;;;;;;;;;5037423;28;20172;-55
2022/11/12 01:07:59;;;;;;;30.93;27.63;;;;;;;;;;5033460;28;20181;-55
2022/11/12 01:10:24;;;;;;;29.47;26.20;;;;;;;;;;5036194;28;20191;-56
2022/11/12 01:12:49;;;;;;;27.07;24.27;;;;;;;;;;5045439;28;20202;-56
2022/11/12 01:15:14;;;;;;;28.20;25.10;;;;;;;;;;5039358;28;20647;-56
2022/11/12 01:17:39;;;;;;;28.63;25.50;;;;;;;;;;5041890;28;20195;-56
2022/11/12 01:20:05;;;;;;;28.27;25.30;;;;;;;;;;5037425;28;20186;-55
2022/11/12 01:22:30;;;;;;;29.90;25.10;;;;;;;;;;5040750;28;20585;-55
2022/11/12 01:24:55;;;;;;;29.00;25.70;;;;;;;;;;5032222;28;20651;-54
2022/11/12 01:27:20;;;;;;;29.95;26.75;;;;;;;;;;5047274;28;20176;-54
2022/11/12 01:29:45;;;;;;;28.77;25.17;;;;;;;;;;5044215;28;20208;-55
2022/11/12 01:32:11;;;;;;;28.90;25.77;;;;;;;;;;5043217;28;20185;-55
2022/11/12 01:34:36;;;;;;;29.40;25.23;;;;;;;;;;5048837;28;20212;-54
2022/11/12 01:37:01;;;;;;;28.37;25.27;;;;;;;;;;5048785;28;20284;-54
2022/11/12 01:39:26;;;;;;;27.07;24.30;;;;;;;;;;5038133;28;20193;-55
2022/11/12 01:41:51;;;;;;;26.73;23.95;;;;;;;;;;5032719;28;20262;-55
2022/11/12 01:44:25;;;;;;;29.13;26.30;;;;;;;;;;5050478;28;20234;-55
2022/11/12 01:47:12;;;;;;;26.80;23.90;;;;;;;;;;5044944;28;20180;-55
2022/11/12 01:49:43;;;;;;;27.33;24.33;;;;;;;;;;5032573;28;20614;-55
2022/11/12 01:52:20;;;;;;;25.47;22.73;;;;;;;;;;5033113;28;20615;-54
2022/11/12 01:54:48;;;;;;;28.07;25.20;;;;;;;;;;5036701;28;20618;-54
2022/11/12 01:57:14;;;;;;;25.03;22.43;;;;;;;;;;5048732;28;20661;-55
2022/11/12 01:59:42;;;;;;;28.13;25.33;;;;;;;;;;5048887;28;21161;-54
2022/11/12 02:02:08;;;;;;;27.00;24.40;;;;;;;;;;5042707;28;20687;-54
2022/11/12 02:04:33;;;;;;;26.77;23.93;;;;;;;;;;5047175;28;20627;-54
2022/11/12 02:06:59;;;;;;;27.87;24.30;;;;;;;;;;5043813;28;20263;-55
2022/11/12 02:09:25;;;;;;;25.73;23.17;;;;;;;;;;5037747;28;20756;-54
2022/11/12 02:11:50;;;;;;;25.50;23.00;;;;;;;;;;5032005;28;20207;-55
2022/11/12 02:14:15;;;;;;;26.40;23.73;;;;;;;;;;5047026;28;20628;-54
2022/11/12 02:16:44;;;;;;;26.97;24.17;;;;;;;;;;5048463;28;20216;-55
2022/11/12 02:19:11;;;;;;;24.00;21.53;;;;;;;;;;5029879;28;20209;-54
2022/11/12 02:21:36;;;;;;;25.23;22.83;;;;;;;;;;5034425;28;20633;-55
2022/11/12 02:24:04;;;;;;;26.97;24.17;;;;;;;;;;5037373;28;21209;-55
2022/11/12 02:26:31;;;;;;;25.27;22.77;;;;;;;;;;5048060;28;20186;-55
2022/11/12 02:28:56;;;;;;;25.83;23.00;;;;;;;;;;5047863;28;20610;-55
2022/11/12 02:31:21;;;;;;;25.83;23.03;;;;;;;;;;5041628;28;20981;-55
2022/11/12 02:33:47;;;;;;;24.73;22.20;;;;;;;;;;5039236;28;20173;-55
2022/11/12 02:36:12;;;;;;;24.90;22.50;;;;;;;;;;5037535;28;20183;-56
2022/11/12 02:38:37;;;;;;;26.10;22.57;;;;;;;;;;5041016;28;20186;-53
2022/11/12 02:41:02;;;;;;;24.97;22.30;;;;;;;;;;5049739;28;20242;-54
2022/11/12 02:43:27;;;;;;;26.00;23.40;;;;;;;;;;5040905;28;20214;-56
2022/11/12 02:45:52;;;;;;;25.33;22.75;;;;;;;;;;5032226;28;20650;-56
2022/11/12 02:48:18;;;;;;;24.43;21.93;;;;;;;;;;5034101;28;20188;-55
2022/11/12 02:50:43;;;;;;;30.30;24.87;;;;;;;;;;5036982;28;20277;-55
2022/11/12 02:53:08;;;;;;;25.80;23.20;;;;;;;;;;5047593;28;20233;-55
2022/11/12 02:55:33;;;;;;;24.37;21.90;;;;;;;;;;5036857;28;20184;-55
2022/11/12 02:57:58;;;;;;;26.42;23.73;;;;;;;;;;5047965;28;20204;-56
2022/11/12 03:00:24;;;;;;;24.80;22.23;;;;;;;;;;5040996;28;20644;-55
2022/11/12 03:02:58;;;;;;;25.80;23.20;;;;;;;;;;5049839;28;20316;-55
2022/11/12 03:05:23;;;;;;;25.33;22.70;;;;;;;;;;5043797;28;20200;-56
2022/11/12 03:07:48;;;;;;;25.53;22.83;;;;;;;;;;5039558;28;20700;-55
2022/11/12 03:10:14;;;;;;;24.30;22.00;;;;;;;;;;5042401;28;20185;-56
2022/11/12 03:12:39;;;;;;;25.23;22.47;;;;;;;;;;5041882;28;20571;-56
2022/11/12 03:15:04;;;;;;;24.60;21.07;;;;;;;;;;5047228;28;20636;-55
2022/11/12 03:17:29;;;;;;;21.63;19.50;;;;;;;;;;5039510;28;20200;-55
2022/11/12 03:19:55;;;;;;;25.17;22.63;;;;;;;;;;5036931;28;20184;-55
2022/11/12 03:22:20;;;;;;;23.13;20.80;;;;;;;;;;5043841;28;20268;-55
2022/11/12 03:24:45;;;;;;;21.00;18.90;;;;;;;;;;5042905;28;20230;-55
2022/11/12 03:27:10;;;;;;;24.70;21.20;;;;;;;;;;5045655;28;20274;-55
2022/11/12 03:29:35;;;;;;;23.90;21.50;;;;;;;;;;5042962;28;20193;-54
2022/11/12 03:32:00;;;;;;;22.40;20.03;;;;;;;;;;5031439;28;20604;-54
2022/11/12 03:34:26;;;;;;;24.63;22.13;;;;;;;;;;5031648;28;20188;-56
2022/11/12 03:36:51;;;;;;;23.13;20.90;;;;;;;;;;5033472;28;20205;-55
2022/11/12 03:39:16;;;;;;;24.67;22.17;;;;;;;;;;5038259;28;20176;-54
2022/11/12 03:41:41;;;;;;;24.20;21.60;;;;;;;;;;5046635;28;20269;-54
2022/11/12 03:44:06;;;;;;;24.60;21.95;;;;;;;;;;5035314;28;20187;-54
2022/11/12 03:46:31;;;;;;;22.90;20.50;;;;;;;;;;5040909;28;20265;-54
2022/11/12 03:48:58;;;;;;;24.00;21.40;;;;;;;;;;5042731;28;20184;-54
2022/11/12 03:51:23;;;;;;;23.53;21.13;;;;;;;;;;5039064;28;20211;-55
2022/11/12 03:53:48;;;;;;;25.50;22.80;;;;;;;;;;5046705;28;20654;-54
2022/11/12 03:56:13;;;;;;;23.13;20.90;;;;;;;;;;5051810;28;20205;-54
2022/11/12 03:58:38;;;;;;;23.63;21.23;;;;;;;;;;5053195;28;20267;-55
2022/11/12 04:01:03;;;;;;;24.60;22.20;;;;;;;;;;5039289;28;20518;-54
2022/11/12 04:03:29;;;;;;;24.00;20.73;;;;;;;;;;5033136;28;20179;-55
2022/11/12 04:08:38;;;;;;;24.10;21.57;;;;;;;;;;5039514;28;20698;-55
2022/11/12 04:11:05;;;;;;;24.93;22.33;;;;;;;;;;5039823;28;20618;-56
2022/11/12 04:13:30;;;;;;;24.47;22.07;;;;;;;;;;5034129;28;20569;-55
2022/11/12 04:21:51;;;;;;;21.57;19.27;;;;;;;;;;5045388;28;20662;-55
2022/11/12 04:27:00;;;;;;;26.43;23.93;;;;;;;;;;5033984;28;20613;-54
2022/11/12 04:32:08;;;;;;;23.97;21.57;;;;;;;;;;5041501;28;20225;-55
2022/11/12 04:34:34;;;;;;;23.65;21.25;;;;;;;;;;5038215;28;20639;-54
2022/11/12 04:37:00;;;;;;;24.03;21.53;;;;;;;;;;5033538;28;20204;-55
2022/11/12 04:39:25;;;;;;;22.40;20.20;;;;;;;;;;5033852;28;20182;-55
2022/11/12 04:47:18;;;;;;;22.67;20.37;;;;;;;;;;5049495;28;20732;-54
2022/11/12 04:49:43;;;;;;;21.00;19.00;;;;;;;;;;5047508;28;20701;-54
2022/11/12 04:52:09;;;;;;;21.00;18.50;;;;;;;;;;5033633;28;20192;-54
2022/11/12 04:54:34;;;;;;;21.77;19.57;;;;;;;;;;5034831;28;20267;-55
2022/11/12 04:56:59;;;;;;;21.70;19.37;;;;;;;;;;5042698;28;20201;-55
2022/11/12 04:59:25;;;;;;;22.20;19.37;;;;;;;;;;5053106;28;20171;-54
2022/11/12 05:01:50;;;;;;;20.27;18.27;;;;;;;;;;5044256;28;20612;-54
2022/11/12 05:04:15;;;;;;;19.03;17.03;;;;;;;;;;5052031;28;20732;-53
2022/11/12 05:06:53;;;;;;;22.45;20.25;;;;;;;;;;5043976;28;20213;-55
2022/11/12 05:09:19;;;;;;;22.03;19.73;;;;;;;;;;5037770;28;20181;-55
2022/11/12 05:11:44;;;;;;;22.63;20.30;;;;;;;;;;5037415;28;20696;-56
2022/11/12 05:14:09;;;;;;;21.63;19.53;;;;;;;;;;5051587;28;20625;-55
2022/11/12 05:16:35;;;;;;;22.87;20.10;;;;;;;;;;5048450;28;20662;-56
2022/11/12 05:19:01;;;;;;;22.77;20.37;;;;;;;;;;5040650;28;20207;-55
2022/11/12 05:24:10;;;;;;;22.30;20.00;;;;;;;;;;5037694;28;20264;-55
2022/11/12 05:26:35;;;;;;;23.83;21.50;;;;;;;;;;5032115;28;20694;-55
2022/11/12 05:29:00;;;;;;;23.73;21.27;;;;;;;;;;5030772;28;20181;-54
2022/11/12 05:31:25;;;;;;;25.00;22.40;;;;;;;;;;5035315;28;20631;-55
2022/11/12 05:33:50;;;;;;;22.57;19.90;;;;;;;;;;5031788;28;20186;-55
2022/11/12 05:36:15;;;;;;;24.90;21.83;;;;;;;;;;5045278;28;20190;-55
2022/11/12 05:38:40;;;;;;;23.70;19.40;;;;;;;;;;5043054;28;20251;-56
2022/11/12 05:41:06;;;;;;;25.37;22.73;;;;;;;;;;5032960;28;20173;-56
2022/11/12 05:43:31;;;;;;;24.50;22.07;;;;;;;;;;5037201;28;20189;-56
2022/11/12 05:45:56;;;;;;;23.73;21.23;;;;;;;;;;5036611;28;20196;-56
2022/11/12 05:48:21;;;;;;;25.43;22.70;;;;;;;;;;5046074;28;20253;-56
2022/11/12 05:50:50;;;;;;;24.30;21.70;;;;;;;;;;5042231;28;20620;-55
2022/11/12 05:53:15;;;;;;;24.73;21.87;;;;;;;;;;5041228;28;20782;-56
2022/11/12 05:55:40;;;;;;;39.50;23.90;;;;;;;;;;5047581;28;20614;-55
2022/11/12 05:58:05;;;;;;;26.40;23.60;;;;;;;;;;5046642;28;20212;-55
2022/11/12 06:00:37;;;;;;;25.87;23.07;;;;;;;;;;5037397;28;20230;-55
2022/11/12 06:03:02;;;;;;;28.40;24.00;;;;;;;;;;5033854;28;20554;-55
2022/11/12 06:05:28;;;;;;;26.80;23.00;;;;;;;;;;5034080;28;20689;-56
2022/11/12 06:07:53;;;;;;;30.17;24.03;;;;;;;;;;5042963;28;20202;-56
2022/11/12 06:10:18;;;;;;;34.40;24.80;;;;;;;;;;5053483;28;20223;-56
2022/11/12 06:12:43;;;;;;;25.33;22.73;;;;;;;;;;5034996;28;20208;-56
2022/11/12 06:15:08;;;;;;;29.77;22.83;;;;;;;;;;5037703;28;20635;-56
2022/11/12 06:17:33;;;;;;;36.30;24.77;;;;;;;;;;5039704;28;20207;-54
2022/11/12 06:19:58;;;;;;;35.30;25.30;;;;;;;;;;5038574;28;20173;-54
2022/11/12 06:22:24;;;;;;;32.37;25.77;;;;;;;;;;5036547;28;20180;-55
2022/11/12 06:24:49;;;;;;;53.53;26.00;;;;;;;;;;5033265;28;20185;-55
2022/11/12 06:27:14;;;;;;;26.93;23.57;;;;;;;;;;5045336;28;20208;-55
2022/11/12 06:29:39;;;;;;;32.33;25.27;;;;;;;;;;5065857;28;20200;-55
2022/11/12 06:32:04;;;;;;;31.53;25.27;;;;;;;;;;5064215;28;20204;-57
2022/11/12 06:34:30;;;;;;;32.73;24.50;;;;;;;;;;5045928;28;20230;-54
2022/11/12 06:36:55;;;;;;;32.50;21.70;;;;;;;;;;5038065;28;20304;-54
2022/11/12 06:39:20;;;;;;;37.40;24.90;;;;;;;;;;5050621;28;20186;-56
2022/11/12 06:41:45;;;;;;;34.63;24.47;;;;;;;;;;5038213;28;20265;-56
2022/11/12 06:44:10;;;;;;;30.67;23.10;;;;;;;;;;5041866;28;20180;-55
2022/11/12 06:46:35;;;;;;;35.80;23.80;;;;;;;;;;5041406;28;20259;-55
2022/11/12 06:49:01;;;;;;;39.30;24.87;;;;;;;;;;5039209;28;20187;-55
2022/11/12 06:51:26;;;;;;;38.03;23.57;;;;;;;;;;5037412;28;20238;-55
2022/11/12 06:53:51;;;;;;;27.73;21.57;;;;;;;;;;5035192;28;20311;-55
2022/11/12 06:56:16;;;;;;;40.30;22.83;;;;;;;;;;5032446;28;20242;-55
2022/11/12 06:58:42;;;;;;;40.73;25.40;;;;;;;;;;5049982;28;20199;-55
2022/11/12 07:01:14;;;;;;;28.67;24.20;;;;;;;;;;5039499;28;20187;-54
2022/11/12 07:03:40;;;;;;;28.03;22.87;;;;;;;;;;5049945;28;20187;-54
2022/11/12 07:06:10;;;;;;;25.90;22.00;;;;;;;;;;5050441;28;20662;-54
2022/11/12 07:08:35;;;;;;;33.73;23.37;;;;;;;;;;5046678;28;20639;-56
2022/11/12 07:11:00;;;;;;;40.97;23.30;;;;;;;;;;5043637;28;21035;-54
2022/11/12 07:13:25;;;;;;;28.57;22.13;;;;;;;;;;5040361;28;21415;-54
2022/11/12 07:15:51;;;;;;;28.67;21.30;;;;;;;;;;5043799;28;20234;-55
2022/11/12 07:18:16;;;;;;;26.03;20.83;;;;;;;;;;5040997;28;20661;-55
2022/11/12 07:20:41;;;;;;;26.97;24.07;;;;;;;;;;5033338;28;20940;-55
2022/11/12 07:23:06;;;;;;;28.70;21.83;;;;;;;;;;5035489;28;20197;-55
2022/11/12 07:25:31;;;;;;;25.50;22.10;;;;;;;;;;5035354;28;20177;-56
2022/11/12 07:27:56;;;;;;;25.33;21.60;;;;;;;;;;5031460;28;20184;-56
2022/11/12 07:30:22;;;;;;;28.17;22.27;;;;;;;;;;5050375;28;20540;-56
2022/11/12 07:32:47;;;;;;;21.40;19.10;;;;;;;;;;5046935;28;20287;-55
2022/11/12 07:35:12;;;;;;;25.93;21.80;;;;;;;;;;5031289;28;20179;-55
2022/11/12 07:37:37;;;;;;;23.40;20.90;;;;;;;;;;5038869;28;20208;-55
2022/11/12 07:40:03;;;;;;;24.73;22.10;;;;;;;;;;5035413;28;20839;-55
2022/11/12 07:42:31;;;;;;;24.40;20.43;;;;;;;;;;5038604;28;20171;-56
2022/11/12 07:44:56;;;;;;;27.10;22.63;;;;;;;;;;5035548;28;20267;-56
2022/11/12 07:47:21;;;;;;;24.97;22.30;;;;;;;;;;5038326;28;20707;-56
2022/11/12 07:49:46;;;;;;;23.75;21.25;;;;;;;;;;5041271;28;20664;-55
2022/11/12 07:52:11;;;;;;;26.83;21.73;;;;;;;;;;5042545;28;20187;-56
2022/11/12 07:54:37;;;;;;;26.37;23.57;;;;;;;;;;5034289;28;20551;-55
2022/11/12 07:57:02;;;;;;;22.13;19.60;;;;;;;;;;5038819;28;20259;-55
2022/11/12 07:59:27;;;;;;;23.37;20.90;;;;;;;;;;5033576;28;20691;-56
2022/11/12 08:01:52;;;;;;;26.67;23.60;;;;;;;;;;5035042;28;20194;-55
2022/11/12 08:04:17;;;;;;;25.53;23.23;;;;;;;;;;5029423;28;20231;-56
2022/11/12 08:06:43;;;;;;;24.93;22.30;;;;;;;;;;5029835;28;20196;-55
2022/11/12 08:09:09;;;;;;;24.10;21.90;;;;;;;;;;5031206;28;20684;-55
2022/11/12 08:11:34;;;;;;;21.83;19.63;;;;;;;;;;5031329;28;20184;-57
2022/11/12 08:13:59;;;;;;;26.80;24.33;;;;;;;;;;5035292;28;20603;-55
2022/11/12 08:16:24;;;;;;;25.43;22.83;;;;;;;;;;5038295;28;20616;-54
2022/11/12 08:18:49;;;;;;;25.37;22.77;;;;;;;;;;5028557;28;20175;-55
2022/11/12 08:21:16;;;;;;;24.53;22.03;;;;;;;;;;5039797;28;20177;-55
2022/11/12 08:23:41;;;;;;;23.47;21.17;;;;;;;;;;5034122;28;20517;-54
2022/11/12 08:26:07;;;;;;;24.97;22.57;;;;;;;;;;5034903;28;20663;-56
2022/11/12 08:28:33;;;;;;;23.37;21.00;;;;;;;;;;5036531;28;20176;-54
2022/11/12 08:31:09;;;;;;;23.27;21.00;;;;;;;;;;5030623;28;20613;-54
2022/11/12 08:33:34;;;;;;;23.93;21.53;;;;;;;;;;5028513;28;20632;-55
2022/11/12 08:36:03;;;;;;;23.73;21.33;;;;;;;;;;5031143;28;21160;-56
2022/11/12 08:38:28;;;;;;;22.37;20.27;;;;;;;;;;5030765;28;20205;-56
2022/11/12 08:40:53;;;;;;;20.10;18.23;;;;;;;;;;5043641;28;20616;-57
2022/11/12 08:43:19;;;;;;;20.50;18.73;;;;;;;;;;5036528;28;20232;-57
2022/11/12 08:45:44;;;;;;;19.70;18.00;;;;;;;;;;5053106;28;20180;-57
2022/11/12 08:48:12;;;;;;;18.47;16.70;;;;;;;;;;5064945;28;20652;-56
2022/11/12 08:50:38;;;;;;;18.67;16.93;;;;;;;;;;5061595;28;20186;-56
2022/11/12 08:53:07;;;;;;;18.10;16.40;;;;;;;;;;5044117;28;20748;-55
2022/11/12 08:55:33;;;;;;;19.43;17.73;;;;;;;;;;5052782;28;20593;-56
2022/11/12 08:58:01;;;;;;;18.00;16.50;;;;;;;;;;5050491;28;20647;-55
2022/11/12 09:00:46;;;;;;;18.17;16.63;;;;;;;;;;5052669;28;20172;-55
2022/11/12 09:03:16;;;;;;;16.83;15.43;;;;;;;;;;5047513;28;20711;-55
2022/11/12 09:05:41;;;;;;;17.77;16.37;;;;;;;;;;5052421;28;20595;-56
2022/11/12 09:08:07;;;;;;;17.10;15.70;;;;;;;;;;5050451;28;21096;-55
2022/11/12 09:10:33;;;;;;;17.13;15.70;;;;;;;;;;5051648;28;20194;-55
2022/11/12 09:12:59;;;;;;;17.83;16.43;;;;;;;;;;5037370;28;20642;-56
2022/11/12 09:15:24;;;;;;;16.67;15.43;;;;;;;;;;5051226;28;20665;-55
2022/11/12 09:18:00;;;;;;;17.50;16.17;;;;;;;;;;5060405;28;20906;-54
2022/11/12 09:20:27;;;;;;;16.40;15.10;;;;;;;;;;5054150;28;20200;-54
2022/11/12 09:22:52;;;;;;;16.00;14.80;;;;;;;;;;5043784;28;20957;-55
2022/11/12 09:25:18;;;;;;;16.97;15.67;;;;;;;;;;5047521;28;20623;-55
2022/11/12 09:27:43;;;;;;;16.50;15.03;;;;;;;;;;5038855;28;20181;-55
2022/11/12 09:30:08;;;;;;;16.90;15.43;;;;;;;;;;5034392;28;20185;-55
2022/11/12 09:32:33;;;;;;;16.23;14.93;;;;;;;;;;5039666;28;20255;-55
2022/11/12 09:34:59;;;;;;;16.00;14.70;;;;;;;;;;5030691;28;20178;-56
2022/11/12 09:37:24;;;;;;;16.40;15.10;;;;;;;;;;5043813;28;20270;-54
2022/11/12 09:39:49;;;;;;;16.58;15.27;;;;;;;;;;5049784;28;20588;-54
2022/11/12 09:42:16;;;;;;;16.60;15.30;;;;;;;;;;5043457;28;20203;-54
2022/11/12 09:44:42;;;;;;;15.73;14.53;;;;;;;;;;5031696;28;20181;-55
2022/11/12 09:47:28;;;;;;;15.80;14.50;;;;;;;;;;5041146;28;20672;-55
2022/11/12 09:50:00;;;;;;;17.17;15.77;;;;;;;;;;5048373;28;20632;-55
2022/11/12 09:52:26;;;;;;;16.40;15.00;;;;;;;;;;5044819;28;20658;-55
2022/11/12 09:55:13;;;;;;;16.20;14.90;;;;;;;;;;5040864;28;20618;-55
2022/11/12 09:57:39;;;;;;;16.10;14.80;;;;;;;;;;5051546;28;20630;-55
2022/11/12 10:00:18;;;;;;;16.27;15.07;;;;;;;;;;5046710;28;20624;-54
2022/11/12 10:02:57;;;;;;;16.10;14.80;;;;;;;;;;5036536;28;20316;-54
2022/11/12 10:05:41;;;;;;;17.50;16.03;;;;;;;;;;5035141;28;20693;-54
2022/11/12 10:08:29;;;;;;;15.93;14.73;;;;;;;;;;5049377;28;20605;-54
2022/11/12 10:11:06;;;;;;;16.67;15.47;;;;;;;;;;5050140;28;20601;-54
2022/11/12 10:13:46;;;;;;;16.23;14.90;;;;;;;;;;5047489;28;21033;-56
2022/11/12 10:18:58;;;;;;;15.20;13.90;;;;;;;;;;5041542;28;20642;-55
2022/11/12 10:21:23;;;;;;;16.43;15.03;;;;;;;;;;5039593;28;20595;-55
2022/11/12 10:23:51;;;;;;;16.33;15.13;;;;;;;;;;5049686;28;20662;-55
2022/11/12 10:26:17;;;;;;;15.43;14.20;;;;;;;;;;5049829;28;20206;-56
2022/11/12 10:28:51;;;;;;;16.20;14.80;;;;;;;;;;5036680;28;21183;-56
2022/11/12 10:31:17;;;;;;;16.63;15.20;;;;;;;;;;5038371;28;20610;-55
2022/11/12 10:33:43;;;;;;;16.03;14.33;;;;;;;;;;5040669;28;20638;-55
2022/11/12 10:36:18;;;;;;;14.53;13.43;;;;;;;;;;5037312;28;20629;-54
2022/11/12 10:38:46;;;;;;;14.10;13.00;;;;;;;;;;5039342;28;20761;-55
2022/11/12 10:41:23;;;;;;;15.57;14.30;;;;;;;;;;5047639;28;20610;-54
2022/11/12 10:43:55;;;;;;;15.03;13.87;;;;;;;;;;5041572;28;20978;-54
2022/11/12 10:46:22;;;;;;;14.77;13.50;;;;;;;;;;5050828;28;20612;-54
2022/11/12 10:48:56;;;;;;;14.77;13.67;;;;;;;;;;5045185;28;20615;-55
2022/11/12 10:51:32;;;;;;;14.57;13.47;;;;;;;;;;5039239;28;20608;-55
2022/11/12 10:53:58;;;;;;;14.07;12.77;;;;;;;;;;5048415;28;20694;-54
2022/11/12 10:56:25;;;;;;;13.23;12.03;;;;;;;;;;5041920;28;20771;-54
2022/11/12 10:59:12;;;;;;;12.63;11.63;;;;;;;;;;5030959;28;20605;-55
2022/11/12 11:01:38;;;;;;;14.73;13.17;;;;;;;;;;5040882;28;20719;-55
2022/11/12 11:04:04;;;;;;;13.27;12.23;;;;;;;;;;5036155;28;20702;-55
2022/11/12 11:06:29;;;;;;;12.33;11.23;;;;;;;;;;5031646;28;20186;-55
2022/11/12 11:09:10;;;;;;;12.40;11.30;;;;;;;;;;5039632;28;20610;-56
2022/11/12 11:11:35;;;;;;;12.73;11.53;;;;;;;;;;5046585;28;20264;-55
2022/11/12 11:14:23;;;;;;;14.23;13.00;;;;;;;;;;5041320;28;20715;-56
2022/11/12 11:16:52;;;;;;;13.13;12.00;;;;;;;;;;5032440;28;20209;-54
2022/11/12 11:19:18;;;;;;;11.73;10.80;;;;;;;;;;5039153;28;20603;-55
2022/11/12 11:21:46;;;;;;;12.70;11.67;;;;;;;;;;5049331;28;20605;-55
2022/11/12 11:24:20;;;;;;;13.00;12.00;;;;;;;;;;5042046;28;20176;-55
2022/11/12 11:26:48;;;;;;;13.90;12.70;;;;;;;;;;5044189;28;20726;-56
2022/11/12 11:29:32;;;;;;;13.17;11.97;;;;;;;;;;5047272;28;20622;-55
2022/11/12 11:32:06;;;;;;;12.03;11.00;;;;;;;;;;5050060;28;20591;-55
2022/11/12 11:34:43;;;;;;;11.53;10.53;;;;;;;;;;5033680;28;20616;-55
2022/11/12 11:37:27;;;;;;;9.83;9.00;;;;;;;;;;5037863;28;20655;-55
2022/11/12 11:40:02;;;;;;;9.50;8.80;;;;;;;;;;5033157;28;20655;-55
2022/11/12 11:42:47;;;;;;;9.30;8.50;;;;;;;;;;5039031;28;20609;-56
2022/11/12 11:45:26;;;;;;;10.87;9.90;;;;;;;;;;5038730;28;20643;-55
2022/11/12 11:48:06;;;;;;;9.07;8.43;;;;;;;;;;5032381;28;21119;-55
2022/11/12 11:50:33;;;;;;;9.33;8.63;;;;;;;;;;5038296;28;21184;-55
2022/11/12 11:53:10;;;;;;;9.07;8.40;;;;;;;;;;5060384;28;21276;-55
2022/11/12 11:55:40;;;;;;;8.97;8.27;;;;;;;;;;5062344;28;20601;-55
2022/11/12 11:58:08;;;;;;;9.00;8.17;;;;;;;;;;5047012;28;20654;-55
2022/11/12 12:00:41;;;;;;;8.00;7.40;;;;;;;;;;5048222;28;20625;-55
2022/11/12 12:03:16;;;;;;;8.77;8.10;;;;;;;;;;5059296;28;20632;-55
2022/11/12 12:05:44;;;;;;;8.90;8.17;;;;;;;;;;5051554;28;20613;-54
2022/11/12 12:08:15;;;;;;;8.30;7.70;;;;;;;;;;5051616;28;20665;-55
2022/11/12 12:10:40;;;;;;;7.20;6.70;;;;;;;;;;5038579;28;20676;-54
2022/11/12 12:13:05;;;;;;;8.30;7.47;;;;;;;;;;5043436;28;20674;-55
2022/11/12 12:15:49;;;;;;;7.60;7.00;;;;;;;;;;5039825;28;20187;-54
2022/11/12 12:18:17;;;;;;;8.20;7.40;;;;;;;;;;5047373;28;20234;-55
2022/11/12 12:20:50;;;;;;;8.40;7.60;;;;;;;;;;5035644;28;20618;-55
2022/11/12 12:23:18;;;;;;;7.20;6.70;;;;;;;;;;5036520;28;20610;-55
2022/11/12 12:25:45;;;;;;;7.40;6.70;;;;;;;;;;5031970;28;20626;-55
2022/11/12 12:28:45;;;;;;;7.50;6.90;;;;;;;;;;5042648;28;20666;-54
2022/11/12 12:31:14;;;;;;;7.20;6.70;;;;;;;;;;5009732;28;20623;-54
2022/11/12 12:33:45;;;;;;;7.07;6.47;;;;;;;;;;5027498;28;20984;-55
2022/11/12 12:36:30;;;;;;;6.20;5.60;;;;;;;;;;5036136;28;20661;-55
2022/11/12 12:39:11;;;;;;;6.77;6.20;;;;;;;;;;5037749;28;20628;-55
2022/11/12 12:41:41;;;;;;;6.13;5.63;;;;;;;;;;5029456;28;20622;-55
2022/11/12 12:44:08;;;;;;;5.40;5.00;;;;;;;;;;5035278;28;21049;-55
2022/11/12 12:46:38;;;;;;;6.33;5.83;;;;;;;;;;5032622;28;20626;-55
2022/11/12 12:49:03;;;;;;;6.03;5.57;;;;;;;;;;5034314;28;20698;-55
2022/11/12 12:51:29;;;;;;;6.17;5.67;;;;;;;;;;5035455;28;20623;-55
2022/11/12 12:53:55;;;;;;;5.47;5.13;;;;;;;;;;5037631;28;20343;-54
2022/11/12 12:56:29;;;;;;;6.13;5.63;;;;;;;;;;5036638;28;20697;-56
2022/11/12 12:58:54;;;;;;;5.77;5.33;;;;;;;;;;5040795;28;20647;-56
2022/11/12 13:01:19;;;;;;;6.13;5.73;;;;;;;;;;5044562;28;20674;-56
2022/11/12 13:03:48;;;;;;;6.83;6.27;;;;;;;;;;5040716;28;20188;-56
2022/11/12 13:06:13;;;;;;;7.37;6.77;;;;;;;;;;5042252;28;20180;-55
2022/11/12 13:08:38;;;;;;;6.57;6.07;;;;;;;;;;5034768;28;20635;-55
2022/11/12 13:11:03;;;;;;;8.40;7.70;;;;;;;;;;5041366;28;20273;-56
2022/11/12 13:13:30;;;;;;;10.57;9.77;;;;;;;;;;5036957;28;20288;-55
2022/11/12 13:15:57;;;;;;;10.10;9.10;;;;;;;;;;5034553;28;20185;-55
2022/11/12 13:18:37;;;;;;;7.80;7.20;;;;;;;;;;5032153;28;20753;-55
2022/11/12 13:21:20;;;;;;;6.53;6.03;;;;;;;;;;5046384;28;20660;-55
2022/11/12 13:24:11;;;;;;;7.80;7.10;;;;;;;;;;5041577;28;20603;-55
2022/11/12 13:26:50;;;;;;;7.90;7.20;;;;;;;;;;5039222;28;21436;-55
2022/11/12 13:29:20;;;;;;;6.60;6.10;;;;;;;;;;5042775;28;20636;-55
2022/11/12 13:31:45;;;;;;;6.33;5.83;;;;;;;;;;5050547;28;21178;-55
2022/11/12 13:34:21;;;;;;;7.37;6.73;;;;;;;;;;5046135;28;20617;-56
2022/11/12 13:36:54;;;;;;;6.50;6.00;;;;;;;;;;5033536;28;20195;-56
2022/11/12 13:39:20;;;;;;;6.50;5.90;;;;;;;;;;5030641;28;20644;-55
2022/11/12 13:44:37;;;;;;;7.00;6.40;;;;;;;;;;5039108;28;21063;-55
2022/11/12 13:47:03;;;;;;;6.60;6.00;;;;;;;;;;5038233;28;20630;-55
2022/11/12 13:49:28;;;;;;;6.13;5.73;;;;;;;;;;5033140;28;20181;-55
2022/11/12 13:51:55;;;;;;;6.20;5.77;;;;;;;;;;5039949;28;20181;-55
2022/11/12 13:54:29;;;;;;;7.07;6.47;;;;;;;;;;5042612;28;20258;-55
2022/11/12 13:56:54;;;;;;;6.90;6.40;;;;;;;;;;5051233;28;21298;-54
2022/11/12 13:59:20;;;;;;;7.90;7.20;;;;;;;;;;5035220;28;20611;-56
2022/11/12 14:01:47;;;;;;;7.80;7.20;;;;;;;;;;5037314;28;20644;-55
2022/11/12 14:04:13;;;;;;;6.50;6.00;;;;;;;;;;5047634;28;20614;-55
2022/11/12 14:06:46;;;;;;;7.57;7.07;;;;;;;;;;5049601;28;20704;-55
2022/11/12 14:09:43;;;;;;;8.33;7.20;;;;;;;;;;5046638;28;20592;-55
2022/11/12 14:12:17;;;;;;;6.83;6.23;;;;;;;;;;5032629;28;20652;-56
2022/11/12 14:15:01;;;;;;;6.70;6.20;;;;;;;;;;5036403;28;20616;-55
2022/11/12 14:17:32;;;;;;;7.63;6.80;;;;;;;;;;5035583;28;20640;-56
2022/11/12 14:20:23;;;;;;;6.80;6.20;;;;;;;;;;5045843;28;20664;-55
2022/11/12 14:22:49;;;;;;;7.30;6.70;;;;;;;;;;5035783;28;20604;-55
2022/11/12 14:25:16;;;;;;;7.30;6.50;;;;;;;;;;5049979;28;20608;-55
2022/11/12 14:27:41;;;;;;;7.70;7.00;;;;;;;;;;5045335;28;20178;-56
2022/11/12 14:30:06;;;;;;;8.77;7.97;;;;;;;;;;5036033;28;20676;-55
2022/11/12 14:32:38;;;;;;;8.20;7.60;;;;;;;;;;5032128;28;20670;-55
2022/11/12 14:35:19;;;;;;;9.20;7.90;;;;;;;;;;5045828;28;20191;-55
2022/11/12 14:37:47;;;;;;;8.50;7.80;;;;;;;;;;5041891;28;20728;-55
2022/11/12 14:40:16;;;;;;;8.37;7.67;;;;;;;;;;5031192;28;20627;-55
2022/11/12 14:42:41;;;;;;;8.03;7.33;;;;;;;;;;5043399;28;20597;-56
2022/11/12 14:45:14;;;;;;;9.17;8.37;;;;;;;;;;5051020;28;20684;-54
2022/11/12 14:47:39;;;;;;;8.90;8.00;;;;;;;;;;5044199;28;20242;-55
2022/11/12 14:50:05;;;;;;;8.53;7.73;;;;;;;;;;5049956;28;20621;-55
2022/11/12 14:52:35;;;;;;;9.03;8.33;;;;;;;;;;5046467;28;20257;-55
2022/11/12 14:55:14;;;;;;;9.13;8.33;;;;;;;;;;5042115;28;20187;-56